Time;durP1;ratioP1;P1;durP2;ratioP2;P2;SDS_P1;SDS_P2;PMS_P1;PMS_P2;Temp;Humidity;BMP_temperature;BMP_pressure;BME280_temperature;BME280_humidity;BME280_pressure;Samples;Min_cycle;Max_cycle;Signal;HPM_P1;HPM_P2
2022/05/16 00:00:17;;;;;;;4.77;2.20;;;23.10;1.00;;;;;;5071780;28;20187;-80
2022/05/16 00:02:42;;;;;;;4.77;2.10;;;22.90;1.00;;;;;;5078734;28;20179;-80
2022/05/16 00:05:12;;;;;;;4.93;2.80;;;23.10;1.00;;;;;;5094039;28;20639;-84
2022/05/16 00:07:41;;;;;;;4.23;2.33;;;23.20;1.00;;;;;;5086001;28;20180;-81
2022/05/16 00:13:28;;;;;;;4.70;2.40;;;23.10;1.00;;;;;;5069588;28;20215;-83
2022/05/16 00:15:55;;;;;;;7.53;2.33;;;23.20;1.00;;;;;;5074218;28;20172;-88
2022/05/16 00:18:28;;;;;;;6.37;2.70;;;23.20;1.00;;;;;;5068012;28;20182;-82
2022/05/16 00:20:56;;;;;;;4.63;2.53;;;23.10;1.00;;;;;;5072888;28;20156;-80
2022/05/16 00:23:24;;;;;;;4.97;2.40;;;23.10;1.00;;;;;;5075072;28;20191;-80
2022/05/16 00:25:49;;;;;;;5.43;2.77;;;23.10;1.00;;;;;;5082271;28;20171;-87
2022/05/16 00:28:21;;;;;;;4.90;2.27;;;23.10;18.00;;;;;;5068799;28;20173;-90
2022/05/16 00:30:48;;;;;;;5.00;2.50;;;23.00;35.30;;;;;;5069773;28;20349;-84
2022/05/16 00:33:15;;;;;;;4.07;2.20;;;23.10;99.90;;;;;;5069529;28;20183;-79
2022/05/16 00:35:41;;;;;;;3.83;2.20;;;23.20;1.00;;;;;;5070381;28;20190;-85
2022/05/16 00:38:08;;;;;;;5.47;2.57;;;23.20;1.00;;;;;;5067430;28;20164;-89
2022/05/16 00:40:41;;;;;;;4.37;2.50;;;23.30;1.00;;;;;;5065137;28;20164;-91
2022/05/16 00:43:12;;;;;;;5.00;2.60;;;23.30;1.00;;;;;;5082316;28;20175;-90
2022/05/16 00:45:48;;;;;;;4.67;2.50;;;23.40;99.90;;;;;;5094946;28;20140;-82
2022/05/16 00:48:14;;;;;;;4.87;2.90;;;23.40;99.90;;;;;;5098786;28;20156;-79
2022/05/16 00:50:49;;;;;;;3.37;2.33;;;23.40;99.90;;;;;;5073087;28;20267;-88
2022/05/16 00:53:17;;;;;;;6.87;2.40;;;23.40;99.90;;;;;;5069501;28;20183;-80
2022/05/16 00:56:02;;;;;;;4.07;2.60;;;23.40;99.90;;;;;;5068455;28;20160;-81
2022/05/16 00:58:30;;;;;;;3.87;2.30;;;23.40;99.90;;;;;;5064623;28;20284;-91
2022/05/16 01:00:56;;;;;;;3.43;2.40;;;23.30;99.90;;;;;;5057825;28;20199;-86
2022/05/16 01:06:14;;;;;;;4.00;2.37;;;23.10;1.00;;;;;;5076644;28;20218;-87
2022/05/16 01:08:43;;;;;;;4.37;2.80;;;23.00;1.00;;;;;;5086614;28;20168;-86
2022/05/16 01:11:12;;;;;;;6.63;2.37;;;23.00;1.00;;;;;;5084142;28;20248;-90
2022/05/16 01:13:41;;;;;;;5.73;2.60;;;23.10;1.00;;;;;;5063334;28;20207;-84
2022/05/16 01:16:07;;;;;;;4.20;2.77;;;23.00;1.00;;;;;;5055346;28;20180;-91
2022/05/16 01:18:33;;;;;;;5.50;2.40;;;23.00;1.00;;;;;;5056297;28;20644;-81
2022/05/16 01:21:01;;;;;;;5.47;2.67;;;23.10;1.00;;;;;;5054076;28;20230;-91
2022/05/16 01:23:31;;;;;;;7.83;2.57;;;22.90;99.90;;;;;;5064660;28;20316;-80
2022/05/16 01:25:59;;;;;;;6.00;2.87;;;22.90;87.20;;;;;;5077013;28;20195;-90
2022/05/16 01:28:25;;;;;;;5.73;2.70;;;22.70;99.90;;;;;;5063430;28;20181;-89
2022/05/16 01:30:54;;;;;;;6.77;3.00;;;22.40;1.00;;;;;;5055636;28;20203;-81
2022/05/16 01:33:23;;;;;;;6.00;3.00;;;22.30;99.90;;;;;;5058134;28;20192;-85
2022/05/16 01:35:49;;;;;;;4.93;2.63;;;22.10;99.90;;;;;;5070305;28;20236;-81
2022/05/16 01:38:19;;;;;;;4.40;2.40;;;22.10;1.00;;;;;;5074856;28;20175;-89
2022/05/16 01:40:49;;;;;;;4.90;2.30;;;22.10;1.00;;;;;;5050492;28;20167;-86
2022/05/16 01:43:15;;;;;;;4.40;2.37;;;21.90;1.00;;;;;;5060449;28;20248;-80
2022/05/16 01:45:43;;;;;;;5.13;2.50;;;21.70;99.90;;;;;;5073665;28;20252;-81
2022/05/16 01:48:11;;;;;;;7.00;2.40;;;21.60;1.00;;;;;;5068378;28;20179;-83
2022/05/16 01:50:37;;;;;;;9.33;2.57;;;21.60;99.90;;;;;;5077318;28;20185;-90
2022/05/16 01:53:04;;;;;;;4.70;2.43;;;21.60;16.00;;;;;;5080913;28;20195;-86
2022/05/16 01:55:30;;;;;;;4.50;2.50;;;21.70;1.00;;;;;;5055997;28;20178;-81
2022/05/16 01:57:56;;;;;;;6.27;2.73;;;21.70;1.00;;;;;;5060916;28;20161;-88
2022/05/16 02:00:22;;;;;;;4.50;2.53;;;21.60;99.90;;;;;;5055913;28;20663;-90
2022/05/16 02:02:48;;;;;;;6.27;2.63;;;21.60;99.90;;;;;;5061177;28;20273;-91
2022/05/16 02:05:17;;;;;;;6.13;2.63;;;21.60;99.90;;;;;;5079246;28;20187;-85
2022/05/16 02:07:43;;;;;;;5.47;2.67;;;21.60;1.00;;;;;;5060071;28;20229;-88
2022/05/16 02:10:11;;;;;;;4.43;2.60;;;21.60;1.00;;;;;;5081335;28;20157;-84
2022/05/16 02:12:37;;;;;;;5.77;2.57;;;21.60;1.00;;;;;;5088167;28;20175;-86
2022/05/16 02:15:06;;;;;;;3.47;2.40;;;21.60;1.00;;;;;;5076735;28;20174;-81
2022/05/16 02:17:32;;;;;;;7.80;2.70;;;21.60;99.90;;;;;;5086079;28;20183;-81
2022/05/16 02:19:57;;;;;;;6.03;2.60;;;21.70;99.90;;;;;;5087274;28;20166;-82
2022/05/16 02:25:15;;;;;;;5.23;2.37;;;21.60;15.10;;;;;;5093914;28;20221;-80
2022/05/16 02:27:45;;;;;;;6.90;2.83;;;21.70;99.90;;;;;;5094277;28;20141;-80
2022/05/16 02:30:12;;;;;;;4.53;2.67;;;21.80;99.90;;;;;;5093046;28;20200;-87
2022/05/16 02:33:19;;;;;;;6.13;2.70;;;21.90;1.00;;;;;;5090020;28;20166;-91
2022/05/16 02:35:48;;;;;;;4.50;2.67;;;21.90;1.00;;;;;;5079192;28;20203;-89
2022/05/16 02:38:16;;;;;;;5.17;2.70;;;22.00;99.90;;;;;;5071680;28;20177;-89
2022/05/16 02:40:51;;;;;;;6.03;2.60;;;22.00;99.90;;;;;;5070301;28;20197;-89
2022/05/16 02:43:17;;;;;;;6.83;2.70;;;22.00;99.90;;;;;;5082204;28;20177;-90
2022/05/16 02:45:42;;;;;;;5.27;2.47;;;21.80;98.60;;;;;;5061534;28;20177;-84
2022/05/16 02:48:09;;;;;;;6.63;2.43;;;21.70;99.90;;;;;;5063506;28;20172;-80
2022/05/16 02:50:36;;;;;;;5.10;2.40;;;21.60;99.90;;;;;;5071969;28;20176;-81
2022/05/16 02:53:02;;;;;;;4.63;2.50;;;21.50;1.00;;;;;;5057140;28;20230;-90
2022/05/16 02:55:31;;;;;;;5.63;2.17;;;21.50;99.90;;;;;;5058701;28;20642;-83
2022/05/16 02:57:58;;;;;;;5.07;2.57;;;21.50;99.90;;;;;;5058848;28;20185;-90
2022/05/16 03:00:23;;;;;;;3.60;2.10;;;21.50;1.00;;;;;;5058564;28;20185;-88
2022/05/16 03:02:49;;;;;;;4.07;2.30;;;21.60;99.90;;;;;;5058721;28;20669;-88
2022/05/16 03:05:15;;;;;;;5.90;2.53;;;21.60;99.90;;;;;;5071145;28;20176;-89
2022/05/16 03:07:42;;;;;;;4.93;2.23;;;21.80;1.00;;;;;;5075949;28;20659;-91
2022/05/16 03:10:11;;;;;;;5.23;2.87;;;21.90;1.00;;;;;;5088987;28;20171;-83
2022/05/16 03:12:37;;;;;;;5.73;2.67;;;22.10;1.00;;;;;;5095814;28;20177;-81
2022/05/16 03:15:03;;;;;;;5.63;2.53;;;22.20;99.90;;;;;;5091764;28;20162;-79
2022/05/16 03:17:29;;;;;;;5.63;2.40;;;22.30;1.00;;;;;;5087757;28;20281;-78
2022/05/16 03:19:54;;;;;;;5.77;2.37;;;22.40;16.80;;;;;;5093210;28;20169;-79
2022/05/16 03:22:20;;;;;;;4.20;2.57;;;22.40;1.00;;;;;;5093875;28;20232;-80
2022/05/16 03:24:46;;;;;;;3.70;2.37;;;22.40;1.00;;;;;;5075129;28;20175;-79
2022/05/16 03:27:17;;;;;;;4.67;2.60;;;22.40;1.00;;;;;;5071096;28;20245;-81
2022/05/16 03:29:43;;;;;;;8.57;2.60;;;22.50;99.90;;;;;;5085463;28;20175;-88
2022/05/16 03:32:14;;;;;;;6.20;2.70;;;22.50;99.90;;;;;;5077932;28;20185;-90
2022/05/16 03:34:39;;;;;;;6.63;2.50;;;22.50;8.40;;;;;;5082041;28;20217;-90
2022/05/16 03:37:05;;;;;;;4.03;2.70;;;22.50;1.00;;;;;;5082810;28;20175;-89
2022/05/16 03:42:34;;;;;;;4.53;2.53;;;22.50;99.90;;;;;;5077704;28;20204;-87
2022/05/16 03:45:00;;;;;;;7.77;2.40;;;22.50;99.90;;;;;;5078212;28;20202;-78
2022/05/16 03:47:26;;;;;;;4.87;2.40;;;22.50;99.90;;;;;;5076316;28;20185;-82
2022/05/16 03:49:52;;;;;;;4.57;2.50;;;22.50;1.00;;;;;;5079610;28;20175;-78
2022/05/16 03:52:17;;;;;;;7.23;3.00;;;22.50;1.00;;;;;;5078337;28;20170;-85
2022/05/16 03:54:46;;;;;;;4.00;2.50;;;22.50;99.90;;;;;;5098147;28;20198;-83
2022/05/16 03:57:11;;;;;;;10.80;2.60;;;22.50;99.90;;;;;;5083925;28;20201;-79
2022/05/16 03:59:37;;;;;;;5.73;2.70;;;22.50;1.00;;;;;;5073888;28;20178;-81
2022/05/16 04:02:05;;;;;;;5.73;2.87;;;22.40;1.00;;;;;;5073394;28;20162;-79
2022/05/16 04:04:31;;;;;;;5.53;2.30;;;22.50;99.90;;;;;;5073919;28;20171;-81
2022/05/16 04:06:58;;;;;;;6.10;2.63;;;22.40;99.90;;;;;;5072795;28;20183;-80
2022/05/16 04:09:23;;;;;;;6.37;2.60;;;22.30;95.20;;;;;;5073402;28;20180;-80
2022/05/16 04:11:49;;;;;;;5.00;2.50;;;22.20;1.00;;;;;;5071767;28;20176;-82
2022/05/16 04:14:16;;;;;;;7.83;2.87;;;22.20;1.00;;;;;;5069515;28;20211;-79
2022/05/16 04:16:42;;;;;;;7.00;2.70;;;22.10;67.30;;;;;;5062487;28;20181;-80
2022/05/16 04:19:11;;;;;;;5.67;2.47;;;22.00;99.90;;;;;;5070679;28;20559;-80
2022/05/16 04:21:40;;;;;;;4.60;2.37;;;22.00;99.90;;;;;;5075621;28;20176;-79
2022/05/16 04:24:08;;;;;;;6.20;2.80;;;22.00;99.90;;;;;;5071211;28;20172;-82
2022/05/16 04:26:39;;;;;;;5.90;2.10;;;21.90;1.00;;;;;;5069136;28;20164;-81
2022/05/16 04:29:57;;;;;;;7.10;2.40;;;21.70;1.00;;;;;;5060684;28;20165;-90
2022/05/16 04:32:28;;;;;;;4.63;2.50;;;21.70;1.00;;;;;;5064841;28;20206;-89
2022/05/16 04:34:57;;;;;;;6.93;2.40;;;21.60;77.60;;;;;;5082724;28;20213;-92
2022/05/16 04:37:23;;;;;;;10.13;2.60;;;21.60;99.90;;;;;;5080915;28;20157;-82
2022/05/16 04:39:48;;;;;;;5.03;2.60;;;21.60;99.90;;;;;;5061372;28;20172;-81
2022/05/16 04:44:59;;;;;;;4.50;2.40;;;21.60;99.90;;;;;;5063093;28;20668;-81
2022/05/16 04:47:26;;;;;;;8.53;2.70;;;21.50;99.90;;;;;;5072992;28;20165;-82
2022/05/16 04:49:52;;;;;;;5.17;2.77;;;21.40;99.90;;;;;;5065807;28;20182;-82
2022/05/16 04:52:18;;;;;;;11.03;2.80;;;21.40;99.90;;;;;;5072402;28;20183;-81
2022/05/16 04:54:46;;;;;;;8.20;2.90;;;21.30;99.90;;;;;;5072044;28;20241;-79
2022/05/16 04:57:15;;;;;;;5.93;2.90;;;21.40;99.90;;;;;;5092276;28;20238;-85
2022/05/16 05:00:05;;;;;;;7.50;2.90;;;21.30;99.90;;;;;;5089363;28;20215;-80
2022/05/16 05:02:30;;;;;;;8.53;2.77;;;21.30;99.90;;;;;;5075770;28;20681;-84
2022/05/16 05:04:59;;;;;;;6.07;2.80;;;21.20;99.90;;;;;;5074289;28;20169;-82
2022/05/16 05:07:25;;;;;;;7.00;2.77;;;21.30;99.90;;;;;;5082528;28;20174;-80
2022/05/16 05:15:26;;;;;;;8.40;3.37;;;21.50;99.90;;;;;;5073915;28;20237;-81
2022/05/16 05:17:53;;;;;;;8.63;3.50;;;21.60;94.00;;;;;;5072908;28;20154;-83
2022/05/16 05:20:25;;;;;;;7.43;3.43;;;21.70;1.00;;;;;;5071278;28;20169;-80
2022/05/16 05:23:03;;;;;;;9.83;3.57;;;21.70;80.60;;;;;;5088635;28;20172;-80
2022/05/16 05:25:32;;;;;;;8.57;3.40;;;21.70;99.90;;;;;;5066403;28;20192;-81
2022/05/16 05:28:21;;;;;;;7.00;3.73;;;21.70;99.90;;;;;;5065622;28;20169;-82
2022/05/16 05:30:48;;;;;;;8.20;3.83;;;21.60;99.90;;;;;;5067626;28;20238;-84
2022/05/16 05:33:14;;;;;;;7.47;3.17;;;21.60;99.90;;;;;;5059881;28;20527;-82
2022/05/16 05:35:42;;;;;;;11.33;3.50;;;21.60;99.90;;;;;;5058549;28;20173;-86
2022/05/16 05:38:24;;;;;;;9.53;3.57;;;21.70;99.90;;;;;;5063980;28;20238;-81
2022/05/16 05:41:34;;;;;;;14.73;4.90;;;21.60;99.90;;;;;;5075914;28;20174;-80
2022/05/16 05:47:22;;;;;;;14.20;5.03;;;21.60;99.90;;;;;;5070652;28;20172;-80
2022/05/16 05:49:49;;;;;;;17.00;4.93;;;21.50;99.90;;;;;;5069491;28;20269;-81
2022/05/16 05:52:17;;;;;;;15.87;4.93;;;21.50;99.90;;;;;;5070168;28;20170;-80
2022/05/16 05:54:44;;;;;;;15.13;5.10;;;21.60;99.90;;;;;;5071983;28;20197;-81
2022/05/16 05:57:12;;;;;;;12.03;4.30;;;21.70;99.90;;;;;;5074507;28;20194;-84
2022/05/16 05:59:38;;;;;;;12.60;4.03;;;21.80;99.90;;;;;;5086106;28;20205;-83
2022/05/16 06:02:08;;;;;;;11.87;4.30;;;22.00;99.90;;;;;;5092786;28;20709;-81
2022/05/16 06:04:34;;;;;;;7.47;3.40;;;22.00;99.90;;;;;;5080490;28;20631;-79
2022/05/16 06:07:01;;;;;;;6.77;3.63;;;22.00;99.90;;;;;;5088774;28;20185;-80
2022/05/16 06:09:28;;;;;;;8.00;3.07;;;22.10;99.90;;;;;;5075051;28;20177;-80
2022/05/16 06:11:54;;;;;;;7.67;3.40;;;22.30;99.90;;;;;;5081682;28;20178;-87
2022/05/16 06:14:20;;;;;;;7.93;3.33;;;22.40;99.90;;;;;;5064204;28;20207;-83
2022/05/16 06:16:46;;;;;;;8.73;3.27;;;22.40;99.90;;;;;;5058587;28;20229;-82
2022/05/16 06:19:12;;;;;;;10.67;3.93;;;22.40;99.90;;;;;;5063154;28;20186;-82
2022/05/16 06:21:41;;;;;;;8.37;3.40;;;22.50;99.90;;;;;;5063199;28;20171;-80
2022/05/16 06:27:17;;;;;;;8.93;3.20;;;22.60;99.90;;;;;;5060694;28;20233;-81
2022/05/16 06:29:49;;;;;;;9.07;2.90;;;22.50;99.90;;;;;;5069152;28;20182;-81
2022/05/16 06:32:18;;;;;;;10.77;5.27;;;22.70;99.90;;;;;;5070833;28;20754;-82
2022/05/16 06:38:16;;;;;;;6.87;2.70;;;22.80;99.90;;;;;;5069262;28;20175;-79
2022/05/16 06:44:28;;;;;;;10.73;3.10;;;22.80;99.90;;;;;;5060400;28;20160;-84
2022/05/16 06:46:57;;;;;;;7.73;2.63;;;22.80;99.90;;;;;;5058576;28;20164;-84
2022/05/16 06:49:24;;;;;;;11.67;3.87;;;22.80;99.90;;;;;;5058327;28;20155;-82
2022/05/16 06:51:50;;;;;;;8.63;2.77;;;22.80;99.90;;;;;;5057062;28;20210;-88
2022/05/16 06:54:16;;;;;;;6.73;3.23;;;22.90;99.90;;;;;;5058289;28;20212;-84
2022/05/16 06:56:41;;;;;;;7.97;2.67;;;22.90;99.90;;;;;;5056664;28;20218;-87
2022/05/16 06:59:07;;;;;;;9.03;2.47;;;23.00;99.90;;;;;;5058259;28;20176;-88
2022/05/16 07:01:33;;;;;;;7.70;2.70;;;23.00;99.90;;;;;;5059010;28;20199;-85
2022/05/16 07:03:58;;;;;;;10.80;2.97;;;22.90;99.90;;;;;;5056932;28;20184;-85
2022/05/16 07:06:24;;;;;;;13.13;3.33;;;23.00;99.90;;;;;;5059364;28;20191;-86
2022/05/16 07:08:50;;;;;;;6.00;2.50;;;23.10;99.90;;;;;;5059059;28;20206;-86
2022/05/16 07:11:16;;;;;;;9.50;3.23;;;23.00;99.90;;;;;;5058514;28;20174;-83
2022/05/16 07:13:41;;;;;;;9.37;3.03;;;23.10;99.90;;;;;;5067201;28;20203;-81
2022/05/16 07:16:07;;;;;;;10.07;3.27;;;23.10;99.90;;;;;;5066608;28;20226;-84
2022/05/16 07:18:32;;;;;;;6.57;3.37;;;23.10;1.00;;;;;;5062640;28;20182;-80
2022/05/16 07:20:59;;;;;;;6.27;2.87;;;23.00;1.00;;;;;;5057040;28;20182;-86
2022/05/16 07:23:26;;;;;;;5.00;2.60;;;23.10;1.00;;;;;;5071161;28;20163;-85
2022/05/16 07:28:39;;;;;;;5.93;2.60;;;23.20;1.00;;;;;;5064028;28;20174;-81
2022/05/16 07:31:07;;;;;;;10.57;3.43;;;23.10;1.00;;;;;;5063336;28;20194;-87
2022/05/16 07:33:36;;;;;;;6.67;2.80;;;23.00;1.00;;;;;;5060666;28;20256;-86
2022/05/16 07:36:03;;;;;;;5.43;2.63;;;22.90;1.00;;;;;;5059427;28;20210;-85
2022/05/16 07:38:29;;;;;;;10.03;3.17;;;22.80;1.00;;;;;;5065449;28;20177;-85
2022/05/16 07:40:56;;;;;;;16.03;9.33;;;22.70;1.00;;;;;;5060703;28;20170;-82
2022/05/16 07:43:23;;;;;;;7.53;2.90;;;22.90;1.00;;;;;;5045381;28;20261;-87
2022/05/16 07:45:49;;;;;;;6.10;2.90;;;22.90;1.00;;;;;;5072655;28;20177;-83
2022/05/16 07:48:18;;;;;;;12.27;3.60;;;22.70;1.00;;;;;;5078254;28;20180;-79
2022/05/16 07:50:45;;;;;;;5.87;3.13;;;22.60;1.00;;;;;;5066030;28;20230;-81
2022/05/16 07:53:17;;;;;;;12.10;3.70;;;22.70;1.00;;;;;;5060512;28;20293;-84
2022/05/16 07:55:53;;;;;;;6.33;2.93;;;22.70;1.00;;;;;;5055841;28;20182;-81
2022/05/16 07:58:22;;;;;;;7.83;3.20;;;22.80;1.00;;;;;;5065757;28;20186;-83
2022/05/16 08:00:50;;;;;;;8.33;3.50;;;23.00;1.00;;;;;;5070488;28;20161;-79
2022/05/16 08:03:19;;;;;;;11.27;3.77;;;23.20;1.00;;;;;;5069469;28;20312;-87
2022/05/16 08:05:48;;;;;;;7.63;3.30;;;23.40;1.00;;;;;;5065328;28;20650;-87
2022/05/16 08:11:00;;;;;;;16.83;7.57;;;23.40;1.00;;;;;;5062429;28;20849;-85
2022/05/16 08:13:33;;;;;;;6.57;3.33;;;23.00;1.00;;;;;;5060663;28;20296;-86
2022/05/16 08:15:59;;;;;;;10.83;3.73;;;22.90;1.00;;;;;;5061944;28;20178;-83
2022/05/16 08:18:26;;;;;;;9.13;4.17;;;22.80;1.00;;;;;;5062071;28;20175;-87
2022/05/16 08:20:53;;;;;;;11.07;4.30;;;22.80;1.00;;;;;;5069157;28;20201;-80
2022/05/16 08:23:26;;;;;;;21.50;4.60;;;22.60;1.00;;;;;;5076267;28;20258;-81
2022/05/16 08:25:54;;;;;;;8.07;4.50;;;22.50;1.00;;;;;;5076651;28;20161;-81
2022/05/16 08:28:22;;;;;;;6.83;4.30;;;22.60;1.00;;;;;;5077852;28;20173;-83
2022/05/16 08:30:49;;;;;;;10.80;4.10;;;22.70;1.00;;;;;;5075830;28;20704;-80
2022/05/16 08:33:15;;;;;;;7.60;4.47;;;22.60;1.00;;;;;;5065144;28;20216;-84
2022/05/16 08:35:42;;;;;;;9.47;5.70;;;22.60;1.00;;;;;;5058742;28;20173;-80
2022/05/16 08:41:02;;;;;;;9.77;5.83;;;22.30;1.00;;;;;;5059159;28;20238;-82
2022/05/16 08:43:36;;;;;;;6.10;3.80;;;22.40;1.00;;;;;;5056694;28;20239;-88
2022/05/16 08:46:32;;;;;;;6.57;4.33;;;22.50;1.00;;;;;;5061971;28;20184;-87
2022/05/16 08:49:07;;;;;;;8.17;4.80;;;22.20;1.00;;;;;;5061293;28;20286;-87
2022/05/16 08:51:36;;;;;;;10.53;5.67;;;22.00;1.00;;;;;;5060276;28;20197;-84
2022/05/16 08:54:24;;;;;;;7.63;4.63;;;21.90;1.00;;;;;;5057302;28;20213;-88
2022/05/16 08:56:51;;;;;;;13.03;8.93;;;21.90;1.00;;;;;;5062199;28;20199;-86
2022/05/16 08:59:24;;;;;;;9.00;5.43;;;22.00;1.00;;;;;;5061142;28;20180;-88
2022/05/16 09:02:08;;;;;;;8.47;5.30;;;22.00;1.00;;;;;;5065575;28;20602;-80
2022/05/16 09:04:44;;;;;;;10.57;5.60;;;22.00;1.00;;;;;;5062040;28;20181;-82
2022/05/16 09:07:15;;;;;;;11.27;6.17;;;21.80;1.00;;;;;;5064873;28;20179;-80
2022/05/16 09:09:42;;;;;;;14.17;5.97;;;21.70;1.00;;;;;;5065948;28;20278;-82
2022/05/16 09:12:21;;;;;;;10.23;5.70;;;21.70;1.00;;;;;;5063757;28;20174;-82
2022/05/16 09:15:12;;;;;;;10.10;6.40;;;21.70;1.00;;;;;;5062710;28;20204;-85
2022/05/16 09:18:00;;;;;;;9.47;5.90;;;21.70;1.00;;;;;;5062769;28;20176;-88
2022/05/16 09:20:42;;;;;;;10.40;5.80;;;21.70;1.00;;;;;;5063888;28;20651;-86
2022/05/16 09:23:31;;;;;;;12.83;5.93;;;21.70;1.00;;;;;;5065468;28;20164;-85
2022/05/16 09:26:08;;;;;;;19.23;15.60;;;21.70;1.00;;;;;;5065589;28;20183;-83
2022/05/16 09:28:42;;;;;;;28.00;16.53;;;21.60;1.00;;;;;;5066997;28;20183;-86
2022/05/16 09:31:42;;;;;;;8.67;6.20;;;21.50;1.00;;;;;;5073487;28;20224;-84
2022/05/16 09:34:09;;;;;;;13.50;7.13;;;21.60;1.00;;;;;;5073161;28;20204;-85
2022/05/16 09:36:41;;;;;;;11.60;5.70;;;21.50;1.00;;;;;;5067202;28;20165;-87
2022/05/16 09:39:10;;;;;;;8.17;6.27;;;21.50;1.00;;;;;;5059741;28;20629;-87
2022/05/16 09:41:44;;;;;;;10.47;7.80;;;21.40;1.00;;;;;;5060037;28;20186;-87
2022/05/16 09:44:15;;;;;;;12.90;7.50;;;21.40;1.70;;;;;;5059390;28;20185;-86
2022/05/16 09:46:43;;;;;;;11.70;7.00;;;21.40;3.10;;;;;;5060526;28;20167;-82
2022/05/16 09:49:24;;;;;;;16.33;8.37;;;21.30;8.30;;;;;;5057885;28;20246;-80
2022/05/16 09:51:54;;;;;;;12.07;8.03;;;21.30;14.10;;;;;;5059417;28;20186;-81
2022/05/16 09:54:35;;;;;;;12.30;8.17;;;21.30;14.50;;;;;;5060119;28;20218;-85
2022/05/16 09:57:19;;;;;;;12.07;7.70;;;21.40;15.20;;;;;;5058592;28;20183;-81
2022/05/16 09:59:51;;;;;;;9.13;7.37;;;21.20;16.70;;;;;;5057594;28;20195;-81
2022/05/16 10:02:27;;;;;;;14.33;8.10;;;21.10;11.40;;;;;;5065578;28;20199;-84
2022/05/16 10:05:20;;;;;;;17.47;9.37;;;21.00;27.30;;;;;;5073858;28;20189;-83
2022/05/16 10:08:06;;;;;;;13.93;8.20;;;21.00;33.10;;;;;;5058131;28;20214;-82
2022/05/16 10:10:39;;;;;;;12.97;8.03;;;21.00;29.90;;;;;;5059454;28;20497;-82
2022/05/16 10:13:06;;;;;;;19.07;8.70;;;21.10;22.70;;;;;;5074757;28;20184;-84
2022/05/16 10:15:33;;;;;;;12.50;8.13;;;21.10;21.60;;;;;;5078288;28;20167;-81
2022/05/16 10:18:02;;;;;;;13.20;8.27;;;21.30;20.30;;;;;;5079370;28;20251;-81
2022/05/16 10:20:36;;;;;;;14.30;8.90;;;21.30;21.50;;;;;;5079908;28;20185;-80
2022/05/16 10:23:32;;;;;;;13.23;8.60;;;21.50;16.80;;;;;;5070526;28;20233;-82
2022/05/16 10:26:06;;;;;;;13.83;8.60;;;21.60;1.00;;;;;;5065931;28;20185;-83
2022/05/16 10:28:59;;;;;;;10.63;8.00;;;21.70;1.00;;;;;;5060048;28;20167;-85
2022/05/16 10:34:57;;;;;;;10.33;7.63;;;21.70;1.00;;;;;;5093411;28;20225;-80
2022/05/16 10:37:25;;;;;;;13.30;7.53;;;21.50;1.00;;;;;;5092775;28;20214;-82
2022/05/16 10:40:04;;;;;;;12.87;6.63;;;21.50;1.00;;;;;;5081830;28;20281;-86
2022/05/16 10:42:56;;;;;;;11.07;6.40;;;21.70;1.00;;;;;;5079617;28;20236;-84
2022/05/16 10:45:26;;;;;;;8.77;5.67;;;21.90;1.00;;;;;;5077916;28;20180;-88
2022/05/16 10:48:07;;;;;;;10.53;7.13;;;22.00;1.00;;;;;;5078653;28;20163;-84
2022/05/16 10:50:50;;;;;;;10.13;7.00;;;22.00;1.00;;;;;;5077636;28;20186;-85
2022/05/16 10:53:37;;;;;;;10.50;6.07;;;22.10;1.00;;;;;;5079253;28;20191;-82
2022/05/16 10:56:18;;;;;;;9.97;5.57;;;22.10;1.00;;;;;;5089263;28;20298;-81
2022/05/16 10:58:58;;;;;;;11.30;4.90;;;22.10;1.00;;;;;;5091556;28;20193;-80
2022/05/16 11:01:40;;;;;;;6.50;4.33;;;22.10;1.00;;;;;;5083308;28;20199;-83
2022/05/16 11:04:07;;;;;;;10.30;4.67;;;21.90;1.00;;;;;;5080947;28;20206;-86
2022/05/16 11:06:46;;;;;;;6.43;4.00;;;21.80;1.00;;;;;;5080115;28;20187;-81
2022/05/16 11:09:22;;;;;;;9.57;4.73;;;21.90;1.00;;;;;;5080996;28;20186;-83
2022/05/16 11:12:05;;;;;;;8.93;4.27;;;21.80;1.00;;;;;;5079570;28;20225;-83
2022/05/16 11:14:46;;;;;;;7.90;4.53;;;21.80;1.00;;;;;;5077753;28;20294;-82
2022/05/16 11:17:23;;;;;;;8.50;3.93;;;21.80;1.00;;;;;;5078053;28;20534;-85
2022/05/16 11:20:12;;;;;;;11.13;5.03;;;21.90;1.00;;;;;;5077391;28;20186;-82
2022/05/16 11:22:40;;;;;;;11.30;4.60;;;22.00;1.00;;;;;;5077168;28;20160;-87
2022/05/16 11:25:23;;;;;;;11.77;4.60;;;22.00;1.00;;;;;;5073007;28;20673;-84
2022/05/16 11:28:15;;;;;;;15.67;5.40;;;22.10;1.00;;;;;;5056726;28;20181;-80
2022/05/16 11:31:13;;;;;;;6.80;3.20;;;22.40;1.00;;;;;;5056097;28;20589;-87
2022/05/16 11:33:54;;;;;;;6.23;4.10;;;22.70;1.00;;;;;;5055519;28;20212;-80
2022/05/16 11:36:32;;;;;;;10.23;4.47;;;22.60;1.00;;;;;;5057707;28;20510;-85
2022/05/16 11:39:19;;;;;;;9.20;3.63;;;22.50;1.00;;;;;;5057846;28;20173;-81
2022/05/16 11:42:14;;;;;;;7.60;3.77;;;22.30;1.00;;;;;;5058099;28;20166;-82
2022/05/16 11:44:40;;;;;;;9.90;4.23;;;22.20;1.00;;;;;;5057985;28;20238;-82
2022/05/16 11:47:21;;;;;;;9.77;4.20;;;22.00;1.00;;;;;;5058084;28;20634;-84
2022/05/16 11:50:01;;;;;;;8.17;4.43;;;22.20;1.00;;;;;;5064524;28;20172;-81
2022/05/16 11:52:48;;;;;;;8.17;3.70;;;22.20;1.00;;;;;;5063850;28;20176;-81
2022/05/16 12:01:33;;;;;;;9.77;4.37;;;22.10;1.00;;;;;;5056961;28;20196;-82
2022/05/16 12:04:20;;;;;;;10.33;3.70;;;22.50;1.00;;;;;;5057718;28;20173;-85
2022/05/16 12:06:53;;;;;;;10.77;4.40;;;22.60;1.00;;;;;;5055625;28;20218;-84
2022/05/16 12:09:25;;;;;;;9.97;3.57;;;22.50;1.00;;;;;;5056476;28;20199;-84
2022/05/16 12:12:26;;;;;;;12.63;4.30;;;22.30;1.00;;;;;;5064552;28;20174;-82
2022/05/16 12:15:13;;;;;;;21.60;6.47;;;22.30;1.00;;;;;;5071438;28;20639;-82
2022/05/16 12:17:57;;;;;;;19.00;5.13;;;22.50;1.00;;;;;;5064147;28;20174;-82
2022/05/16 12:20:42;;;;;;;10.47;4.50;;;22.70;1.00;;;;;;5060105;28;20178;-82
2022/05/16 12:23:10;;;;;;;12.33;3.87;;;22.70;1.00;;;;;;5057816;28;20153;-86
2022/05/16 12:25:39;;;;;;;10.40;3.83;;;22.40;1.00;;;;;;5056177;28;20165;-86
2022/05/16 12:28:19;;;;;;;8.03;3.50;;;22.30;1.00;;;;;;5057794;28;20190;-85
2022/05/16 12:30:58;;;;;;;9.43;3.57;;;22.20;1.00;;;;;;5056314;28;20201;-83
2022/05/16 12:33:34;;;;;;;17.03;4.40;;;22.10;1.00;;;;;;5057495;28;20199;-81
2022/05/16 12:35:59;;;;;;;6.50;2.93;;;22.20;1.00;;;;;;5056109;28;20181;-84
2022/05/16 12:38:28;;;;;;;7.00;2.53;;;22.20;1.00;;;;;;5054736;28;20634;-83
2022/05/16 12:41:13;;;;;;;6.13;2.57;;;22.10;99.90;;;;;;5056196;28;20543;-81
2022/05/16 12:44:00;;;;;;;7.27;2.63;;;22.10;99.90;;;;;;5056408;28;20218;-86
2022/05/16 12:46:59;;;;;;;9.43;2.80;;;22.10;1.00;;;;;;5064340;28;20240;-80
2022/05/16 12:49:37;;;;;;;7.80;2.80;;;22.40;99.90;;;;;;5073825;28;20165;-80
2022/05/16 12:52:20;;;;;;;15.77;4.33;;;22.40;99.90;;;;;;5074650;28;20184;-81
2022/05/16 12:55:24;;;;;;;16.10;3.90;;;22.70;99.90;;;;;;5072135;28;20209;-80
2022/05/16 12:58:07;;;;;;;11.37;3.97;;;23.00;99.90;;;;;;5071958;28;20218;-82
2022/05/16 13:00:45;;;;;;;8.33;3.20;;;23.10;99.90;;;;;;5076156;28;20162;-81
2022/05/16 13:03:38;;;;;;;9.03;3.03;;;23.20;99.90;;;;;;5076455;28;20212;-86
2022/05/16 13:06:27;;;;;;;13.77;4.10;;;22.90;99.90;;;;;;5076844;28;20225;-82
2022/05/16 13:09:06;;;;;;;6.27;3.03;;;22.90;99.90;;;;;;5080667;28;20173;-80
2022/05/16 13:12:22;;;;;;;12.17;4.07;;;23.00;99.90;;;;;;5068433;28;20232;-80
2022/05/16 13:15:07;;;;;;;10.57;3.83;;;23.10;99.90;;;;;;5068089;28;20193;-80
2022/05/16 13:17:58;;;;;;;14.17;4.57;;;23.00;99.90;;;;;;5057762;28;20170;-80
2022/05/16 13:20:45;;;;;;;8.83;3.10;;;23.00;99.90;;;;;;5055905;28;20600;-89
2022/05/16 13:23:29;;;;;;;4.77;2.10;;;23.00;17.10;;;;;;5055718;28;20257;-82
2022/05/16 13:31:44;;;;;;;6.33;2.37;;;22.50;99.90;;;;;;5055974;28;20539;-80
2022/05/16 13:34:26;;;;;;;9.70;2.80;;;22.60;99.90;;;;;;5057431;28;20200;-88
2022/05/16 13:36:52;;;;;;;4.10;2.07;;;22.80;99.90;;;;;;5056066;28;20173;-80
2022/05/16 13:39:18;;;;;;;8.13;2.30;;;22.50;99.90;;;;;;5057017;28;20656;-82
2022/05/16 13:41:57;;;;;;;8.43;2.50;;;22.30;99.90;;;;;;5059579;28;20252;-83
2022/05/16 13:44:23;;;;;;;11.03;2.27;;;22.40;99.90;;;;;;5060748;28;20173;-81
2022/05/16 13:46:52;;;;;;;10.63;2.87;;;22.40;99.90;;;;;;5075320;28;20184;-81
2022/05/16 13:49:18;;;;;;;9.70;2.60;;;22.50;99.90;;;;;;5064495;28;20178;-80
2022/05/16 13:51:52;;;;;;;6.87;2.23;;;22.70;21.00;;;;;;5061113;28;20166;-84
2022/05/16 13:54:27;;;;;;;7.40;2.40;;;22.60;1.00;;;;;;5068422;28;20199;-81
2022/05/16 13:56:56;;;;;;;8.33;2.57;;;22.70;1.00;;;;;;5082845;28;20219;-82
2022/05/16 13:59:24;;;;;;;5.03;2.47;;;22.50;1.00;;;;;;5095690;28;20196;-84
2022/05/16 14:01:52;;;;;;;9.27;2.23;;;22.70;1.00;;;;;;5102234;28;20189;-84
2022/05/16 14:04:24;;;;;;;8.53;2.53;;;22.80;1.00;;;;;;5098388;28;20223;-82
2022/05/16 14:06:50;;;;;;;6.90;2.50;;;22.90;1.00;;;;;;5083965;28;20180;-84
2022/05/16 14:09:49;;;;;;;7.60;2.97;;;23.00;1.00;;;;;;5090131;28;20177;-81
2022/05/16 14:12:27;;;;;;;9.27;3.83;;;23.00;1.00;;;;;;5084671;28;20197;-80
2022/05/16 14:15:16;;;;;;;7.87;4.03;;;23.00;1.00;;;;;;5095922;28;20212;-84